sensor_id;sensor_type;location;lat;lon;timestamp;temperature;humidity
24410;DHT22;12543;53.364;-1.504;2023-03-01T00:01:11;6.30;99.90
24410;DHT22;12543;53.364;-1.504;2023-03-01T00:03:39;6.30;99.90
24410;DHT22;12543;53.364;-1.504;2023-03-01T00:06:06;6.30;99.90
24410;DHT22;12543;53.364;-1.504;2023-03-01T00:08:33;6.30;99.90
24410;DHT22;12543;53.364;-1.504;2023-03-01T00:11:10;6.30;99.90
24410;DHT22;12543;53.364;-1.504;2023-03-01T00:13:38;6.20;99.90
24410;DHT22;12543;53.364;-1.504;2023-03-01T00:16:08;6.30;99.90
24410;DHT22;12543;53.364;-1.504;2023-03-01T00:18:35;6.30;99.90
24410;DHT22;12543;53.364;-1.504;2023-03-01T00:21:03;6.20;99.90
24410;DHT22;12543;53.364;-1.504;2023-03-01T00:23:30;6.20;99.90
24410;DHT22;12543;53.364;-1.504;2023-03-01T00:25:57;6.20;99.90
24410;DHT22;12543;53.364;-1.504;2023-03-01T00:28:24;6.20;99.90
24410;DHT22;12543;53.364;-1.504;2023-03-01T00:30:51;6.20;99.90
24410;DHT22;12543;53.364;-1.504;2023-03-01T00:33:19;6.20;99.90
24410;DHT22;12543;53.364;-1.504;2023-03-01T00:35:47;6.20;99.90
24410;DHT22;12543;53.364;-1.504;2023-03-01T00:38:14;6.20;99.90
24410;DHT22;12543;53.364;-1.504;2023-03-01T00:40:41;6.20;99.90
24410;DHT22;12543;53.364;-1.504;2023-03-01T00:43:08;6.20;99.90
24410;DHT22;12543;53.364;-1.504;2023-03-01T00:45:36;6.20;99.90
24410;DHT22;12543;53.364;-1.504;2023-03-01T00:48:03;6.20;99.90
24410;DHT22;12543;53.364;-1.504;2023-03-01T00:50:30;6.20;99.90
24410;DHT22;12543;53.364;-1.504;2023-03-01T00:52:57;6.20;99.90
24410;DHT22;12543;53.364;-1.504;2023-03-01T00:55:25;6.20;99.90
24410;DHT22;12543;53.364;-1.504;2023-03-01T00:57:52;6.20;99.90
24410;DHT22;12543;53.364;-1.504;2023-03-01T01:00:19;6.20;99.90
24410;DHT22;12543;53.364;-1.504;2023-03-01T01:02:48;6.10;99.90
24410;DHT22;12543;53.364;-1.504;2023-03-01T01:05:15;6.20;99.90
24410;DHT22;12543;53.364;-1.504;2023-03-01T01:07:48;6.10;99.90
24410;DHT22;12543;53.364;-1.504;2023-03-01T01:10:15;6.10;99.90
24410;DHT22;12543;53.364;-1.504;2023-03-01T01:12:46;6.10;99.90
24410;DHT22;12543;53.364;-1.504;2023-03-01T01:15:14;6.10;99.90
24410;DHT22;12543;53.364;-1.504;2023-03-01T01:17:43;6.10;99.90
24410;DHT22;12543;53.364;-1.504;2023-03-01T01:20:11;6.10;99.90
24410;DHT22;12543;53.364;-1.504;2023-03-01T01:22:38;6.10;99.90
24410;DHT22;12543;53.364;-1.504;2023-03-01T01:25:05;6.20;99.90
24410;DHT22;12543;53.364;-1.504;2023-03-01T01:27:33;6.10;99.90
24410;DHT22;12543;53.364;-1.504;2023-03-01T01:30:00;6.10;99.90
24410;DHT22;12543;53.364;-1.504;2023-03-01T01:32:28;6.10;99.90
24410;DHT22;12543;53.364;-1.504;2023-03-01T01:34:55;6.10;99.90
24410;DHT22;12543;53.364;-1.504;2023-03-01T01:37:22;6.10;99.90
24410;DHT22;12543;53.364;-1.504;2023-03-01T01:39:49;6.10;99.90
24410;DHT22;12543;53.364;-1.504;2023-03-01T01:42:17;6.20;99.90
24410;DHT22;12543;53.364;-1.504;2023-03-01T01:44:48;6.10;99.90
24410;DHT22;12543;53.364;-1.504;2023-03-01T01:47:18;6.10;99.90
24410;DHT22;12543;53.364;-1.504;2023-03-01T01:49:50;6.10;99.90
24410;DHT22;12543;53.364;-1.504;2023-03-01T01:52:22;6.10;99.90
24410;DHT22;12543;53.364;-1.504;2023-03-01T01:57:30;6.10;99.90
24410;DHT22;12543;53.364;-1.504;2023-03-01T01:59:59;6.10;99.90
24410;DHT22;12543;53.364;-1.504;2023-03-01T02:02:27;6.10;99.90
24410;DHT22;12543;53.364;-1.504;2023-03-01T02:07:52;6.00;99.90
24410;DHT22;12543;53.364;-1.504;2023-03-01T02:10:23;6.00;99.90
24410;DHT22;12543;53.364;-1.504;2023-03-01T02:12:52;6.00;99.90
24410;DHT22;12543;53.364;-1.504;2023-03-01T02:15:20;6.00;99.90
24410;DHT22;12543;53.364;-1.504;2023-03-01T02:17:47;6.00;99.90
24410;DHT22;12543;53.364;-1.504;2023-03-01T02:22:54;6.00;99.90
24410;DHT22;12543;53.364;-1.504;2023-03-01T02:28:08;6.00;99.90
24410;DHT22;12543;53.364;-1.504;2023-03-01T02:30:38;6.00;99.90
24410;DHT22;12543;53.364;-1.504;2023-03-01T02:33:26;6.00;99.90
24410;DHT22;12543;53.364;-1.504;2023-03-01T02:35:54;6.00;99.90
24410;DHT22;12543;53.364;-1.504;2023-03-01T02:38:23;6.00;99.90
24410;DHT22;12543;53.364;-1.504;2023-03-01T02:40:51;6.00;99.90
24410;DHT22;12543;53.364;-1.504;2023-03-01T02:43:19;6.00;99.90
24410;DHT22;12543;53.364;-1.504;2023-03-01T02:45:49;6.00;99.90
24410;DHT22;12543;53.364;-1.504;2023-03-01T02:48:17;6.00;99.90
24410;DHT22;12543;53.364;-1.504;2023-03-01T02:51:07;6.00;99.90
24410;DHT22;12543;53.364;-1.504;2023-03-01T02:53:59;6.00;99.90
24410;DHT22;12543;53.364;-1.504;2023-03-01T02:56:29;6.00;99.90
24410;DHT22;12543;53.364;-1.504;2023-03-01T02:58:57;6.00;99.90
24410;DHT22;12543;53.364;-1.504;2023-03-01T03:01:28;6.00;99.90
24410;DHT22;12543;53.364;-1.504;2023-03-01T03:04:08;6.00;99.90
24410;DHT22;12543;53.364;-1.504;2023-03-01T03:06:37;6.00;99.90
24410;DHT22;12543;53.364;-1.504;2023-03-01T03:09:04;6.00;99.90
24410;DHT22;12543;53.364;-1.504;2023-03-01T03:11:31;6.00;99.90
24410;DHT22;12543;53.364;-1.504;2023-03-01T03:13:59;6.00;99.90
24410;DHT22;12543;53.364;-1.504;2023-03-01T03:16:26;6.00;99.90
24410;DHT22;12543;53.364;-1.504;2023-03-01T03:18:54;6.00;99.90
24410;DHT22;12543;53.364;-1.504;2023-03-01T03:21:21;6.00;99.90
24410;DHT22;12543;53.364;-1.504;2023-03-01T03:23:48;6.00;99.90
24410;DHT22;12543;53.364;-1.504;2023-03-01T03:26:15;6.00;99.90
24410;DHT22;12543;53.364;-1.504;2023-03-01T03:28:41;6.00;99.90
24410;DHT22;12543;53.364;-1.504;2023-03-01T03:31:09;6.00;99.90
24410;DHT22;12543;53.364;-1.504;2023-03-01T03:33:36;6.00;99.90
24410;DHT22;12543;53.364;-1.504;2023-03-01T03:36:03;6.00;99.90
24410;DHT22;12543;53.364;-1.504;2023-03-01T03:38:30;6.00;99.90
24410;DHT22;12543;53.364;-1.504;2023-03-01T03:41:04;6.00;99.90
24410;DHT22;12543;53.364;-1.504;2023-03-01T03:43:32;6.00;99.90
24410;DHT22;12543;53.364;-1.504;2023-03-01T03:45:59;6.00;99.90
24410;DHT22;12543;53.364;-1.504;2023-03-01T03:48:26;6.00;99.90
24410;DHT22;12543;53.364;-1.504;2023-03-01T03:50:54;6.00;99.90
24410;DHT22;12543;53.364;-1.504;2023-03-01T03:53:22;6.00;99.90
24410;DHT22;12543;53.364;-1.504;2023-03-01T03:55:49;6.00;99.90
24410;DHT22;12543;53.364;-1.504;2023-03-01T03:58:18;6.00;99.90
24410;DHT22;12543;53.364;-1.504;2023-03-01T04:00:47;6.00;99.90
24410;DHT22;12543;53.364;-1.504;2023-03-01T04:03:15;5.90;99.90
24410;DHT22;12543;53.364;-1.504;2023-03-01T04:05:42;5.90;99.90
24410;DHT22;12543;53.364;-1.504;2023-03-01T04:08:09;5.90;99.90
24410;DHT22;12543;53.364;-1.504;2023-03-01T04:10:40;5.90;99.90
24410;DHT22;12543;53.364;-1.504;2023-03-01T04:13:11;5.90;99.90
24410;DHT22;12543;53.364;-1.504;2023-03-01T04:15:38;5.90;99.90
24410;DHT22;12543;53.364;-1.504;2023-03-01T04:18:06;5.90;99.90
24410;DHT22;12543;53.364;-1.504;2023-03-01T04:20:34;5.90;99.90
24410;DHT22;12543;53.364;-1.504;2023-03-01T04:23:02;5.90;99.90
24410;DHT22;12543;53.364;-1.504;2023-03-01T04:25:38;5.90;99.90
24410;DHT22;12543;53.364;-1.504;2023-03-01T04:28:05;5.90;99.90
24410;DHT22;12543;53.364;-1.504;2023-03-01T04:30:32;5.90;99.90
24410;DHT22;12543;53.364;-1.504;2023-03-01T04:33:03;5.90;99.90
24410;DHT22;12543;53.364;-1.504;2023-03-01T04:35:30;5.80;99.90
24410;DHT22;12543;53.364;-1.504;2023-03-01T04:37:58;5.90;99.90
24410;DHT22;12543;53.364;-1.504;2023-03-01T04:40:25;5.80;99.90
24410;DHT22;12543;53.364;-1.504;2023-03-01T04:42:51;5.80;99.90
24410;DHT22;12543;53.364;-1.504;2023-03-01T04:45:18;5.80;99.90
24410;DHT22;12543;53.364;-1.504;2023-03-01T04:47:46;5.80;99.90
24410;DHT22;12543;53.364;-1.504;2023-03-01T04:50:14;5.80;99.90
24410;DHT22;12543;53.364;-1.504;2023-03-01T04:52:41;5.80;99.90
24410;DHT22;12543;53.364;-1.504;2023-03-01T04:55:09;5.80;99.90
24410;DHT22;12543;53.364;-1.504;2023-03-01T04:57:36;5.80;99.90
24410;DHT22;12543;53.364;-1.504;2023-03-01T05:00:03;5.80;99.90
24410;DHT22;12543;53.364;-1.504;2023-03-01T05:02:51;5.80;99.90
24410;DHT22;12543;53.364;-1.504;2023-03-01T05:05:21;5.80;99.90
24410;DHT22;12543;53.364;-1.504;2023-03-01T05:07:48;5.80;99.90
24410;DHT22;12543;53.364;-1.504;2023-03-01T05:10:15;5.80;99.90
24410;DHT22;12543;53.364;-1.504;2023-03-01T05:12:42;5.80;99.90
24410;DHT22;12543;53.364;-1.504;2023-03-01T05:15:09;5.80;99.90
24410;DHT22;12543;53.364;-1.504;2023-03-01T05:17:39;5.80;99.90
24410;DHT22;12543;53.364;-1.504;2023-03-01T05:20:06;5.80;99.90
24410;DHT22;12543;53.364;-1.504;2023-03-01T05:22:35;5.80;99.90
24410;DHT22;12543;53.364;-1.504;2023-03-01T05:25:02;5.80;99.90
24410;DHT22;12543;53.364;-1.504;2023-03-01T05:27:29;5.80;99.90
24410;DHT22;12543;53.364;-1.504;2023-03-01T05:29:57;5.80;99.90
24410;DHT22;12543;53.364;-1.504;2023-03-01T05:32:23;5.80;99.90
24410;DHT22;12543;53.364;-1.504;2023-03-01T05:34:51;5.80;99.90
24410;DHT22;12543;53.364;-1.504;2023-03-01T05:37:18;5.80;99.90
24410;DHT22;12543;53.364;-1.504;2023-03-01T05:39:46;5.80;99.90
24410;DHT22;12543;53.364;-1.504;2023-03-01T05:42:16;5.80;99.90
24410;DHT22;12543;53.364;-1.504;2023-03-01T05:44:43;5.80;99.90
24410;DHT22;12543;53.364;-1.504;2023-03-01T05:47:11;5.80;99.90
24410;DHT22;12543;53.364;-1.504;2023-03-01T05:49:38;5.80;99.90
24410;DHT22;12543;53.364;-1.504;2023-03-01T05:52:05;5.70;99.90
24410;DHT22;12543;53.364;-1.504;2023-03-01T05:54:32;5.70;99.90
24410;DHT22;12543;53.364;-1.504;2023-03-01T05:56:59;5.70;99.90
24410;DHT22;12543;53.364;-1.504;2023-03-01T05:59:26;5.70;99.90
24410;DHT22;12543;53.364;-1.504;2023-03-01T06:01:53;5.70;99.90
24410;DHT22;12543;53.364;-1.504;2023-03-01T06:04:20;5.70;99.90
24410;DHT22;12543;53.364;-1.504;2023-03-01T06:06:47;5.70;99.90
24410;DHT22;12543;53.364;-1.504;2023-03-01T06:09:14;5.70;99.90
24410;DHT22;12543;53.364;-1.504;2023-03-01T06:11:42;5.60;99.90
24410;DHT22;12543;53.364;-1.504;2023-03-01T06:14:09;5.70;99.90
24410;DHT22;12543;53.364;-1.504;2023-03-01T06:16:37;5.60;99.90
24410;DHT22;12543;53.364;-1.504;2023-03-01T06:19:04;5.60;99.90
24410;DHT22;12543;53.364;-1.504;2023-03-01T06:21:31;5.60;99.90
24410;DHT22;12543;53.364;-1.504;2023-03-01T06:23:58;5.50;99.90
24410;DHT22;12543;53.364;-1.504;2023-03-01T06:26:24;5.60;99.90
24410;DHT22;12543;53.364;-1.504;2023-03-01T06:28:51;5.50;99.90
24410;DHT22;12543;53.364;-1.504;2023-03-01T06:31:18;5.50;99.90
24410;DHT22;12543;53.364;-1.504;2023-03-01T06:33:45;5.50;99.90
24410;DHT22;12543;53.364;-1.504;2023-03-01T06:36:12;5.50;99.90
24410;DHT22;12543;53.364;-1.504;2023-03-01T06:38:39;5.60;99.90
24410;DHT22;12543;53.364;-1.504;2023-03-01T06:41:07;5.60;99.90
24410;DHT22;12543;53.364;-1.504;2023-03-01T06:43:34;5.60;99.90
24410;DHT22;12543;53.364;-1.504;2023-03-01T06:46:03;5.60;99.90
24410;DHT22;12543;53.364;-1.504;2023-03-01T06:48:30;5.50;99.90
24410;DHT22;12543;53.364;-1.504;2023-03-01T06:51:00;5.50;99.90
24410;DHT22;12543;53.364;-1.504;2023-03-01T06:53:28;5.50;99.90
24410;DHT22;12543;53.364;-1.504;2023-03-01T06:55:55;5.50;99.90
24410;DHT22;12543;53.364;-1.504;2023-03-01T06:58:23;5.60;99.90
24410;DHT22;12543;53.364;-1.504;2023-03-01T07:00:49;5.60;99.90
24410;DHT22;12543;53.364;-1.504;2023-03-01T07:03:16;5.50;99.90
24410;DHT22;12543;53.364;-1.504;2023-03-01T07:05:43;5.50;99.90
24410;DHT22;12543;53.364;-1.504;2023-03-01T07:08:11;5.60;99.90
24410;DHT22;12543;53.364;-1.504;2023-03-01T07:10:38;5.50;99.90
24410;DHT22;12543;53.364;-1.504;2023-03-01T07:13:05;5.50;99.90
24410;DHT22;12543;53.364;-1.504;2023-03-01T07:15:33;5.50;99.90
24410;DHT22;12543;53.364;-1.504;2023-03-01T07:18:00;5.50;99.90
24410;DHT22;12543;53.364;-1.504;2023-03-01T07:20:27;5.60;99.90
24410;DHT22;12543;53.364;-1.504;2023-03-01T07:22:55;5.50;99.90
24410;DHT22;12543;53.364;-1.504;2023-03-01T07:25:23;5.60;99.90
24410;DHT22;12543;53.364;-1.504;2023-03-01T07:27:53;5.60;99.90
24410;DHT22;12543;53.364;-1.504;2023-03-01T07:30:20;5.60;99.90
24410;DHT22;12543;53.364;-1.504;2023-03-01T07:32:47;5.60;99.90
24410;DHT22;12543;53.364;-1.504;2023-03-01T07:35:14;5.60;99.90
24410;DHT22;12543;53.364;-1.504;2023-03-01T07:37:41;5.60;99.90
24410;DHT22;12543;53.364;-1.504;2023-03-01T07:40:09;5.60;99.90
24410;DHT22;12543;53.364;-1.504;2023-03-01T07:42:36;5.60;99.90
24410;DHT22;12543;53.364;-1.504;2023-03-01T07:45:04;5.60;99.90
24410;DHT22;12543;53.364;-1.504;2023-03-01T07:47:31;5.60;99.90
24410;DHT22;12543;53.364;-1.504;2023-03-01T07:49:58;5.70;99.90
24410;DHT22;12543;53.364;-1.504;2023-03-01T07:52:25;5.70;99.90
24410;DHT22;12543;53.364;-1.504;2023-03-01T07:54:52;5.70;99.90
24410;DHT22;12543;53.364;-1.504;2023-03-01T07:57:19;5.70;99.90
24410;DHT22;12543;53.364;-1.504;2023-03-01T07:59:46;5.70;99.90
24410;DHT22;12543;53.364;-1.504;2023-03-01T08:02:13;5.70;99.90
24410;DHT22;12543;53.364;-1.504;2023-03-01T08:04:41;5.70;99.90
24410;DHT22;12543;53.364;-1.504;2023-03-01T08:07:09;5.70;99.90
24410;DHT22;12543;53.364;-1.504;2023-03-01T08:09:36;5.80;99.90
24410;DHT22;12543;53.364;-1.504;2023-03-01T08:12:05;5.80;99.90
24410;DHT22;12543;53.364;-1.504;2023-03-01T08:14:32;5.80;99.90
24410;DHT22;12543;53.364;-1.504;2023-03-01T08:16:59;5.80;99.90
24410;DHT22;12543;53.364;-1.504;2023-03-01T08:19:26;5.80;99.90
24410;DHT22;12543;53.364;-1.504;2023-03-01T08:21:54;5.90;99.90
24410;DHT22;12543;53.364;-1.504;2023-03-01T08:24:25;5.90;99.90
24410;DHT22;12543;53.364;-1.504;2023-03-01T08:26:52;5.90;99.90
24410;DHT22;12543;53.364;-1.504;2023-03-01T08:29:19;5.90;99.90
24410;DHT22;12543;53.364;-1.504;2023-03-01T08:31:46;6.00;99.90
24410;DHT22;12543;53.364;-1.504;2023-03-01T08:34:14;6.00;99.90
24410;DHT22;12543;53.364;-1.504;2023-03-01T08:36:42;6.00;99.90
24410;DHT22;12543;53.364;-1.504;2023-03-01T08:39:10;6.00;99.90
24410;DHT22;12543;53.364;-1.504;2023-03-01T08:41:38;6.10;99.90
24410;DHT22;12543;53.364;-1.504;2023-03-01T08:44:05;6.10;99.90
24410;DHT22;12543;53.364;-1.504;2023-03-01T08:46:33;6.10;99.90
24410;DHT22;12543;53.364;-1.504;2023-03-01T08:49:02;6.20;99.90
24410;DHT22;12543;53.364;-1.504;2023-03-01T08:51:29;6.20;99.90
24410;DHT22;12543;53.364;-1.504;2023-03-01T08:53:58;6.20;99.90
24410;DHT22;12543;53.364;-1.504;2023-03-01T08:56:25;6.30;99.90
24410;DHT22;12543;53.364;-1.504;2023-03-01T08:58:52;6.30;99.90
24410;DHT22;12543;53.364;-1.504;2023-03-01T09:01:19;6.30;99.90
24410;DHT22;12543;53.364;-1.504;2023-03-01T09:03:46;6.30;99.90
24410;DHT22;12543;53.364;-1.504;2023-03-01T09:06:13;6.30;99.90
24410;DHT22;12543;53.364;-1.504;2023-03-01T09:08:42;6.30;99.90
24410;DHT22;12543;53.364;-1.504;2023-03-01T09:11:10;6.30;99.90
24410;DHT22;12543;53.364;-1.504;2023-03-01T09:13:38;6.30;99.90
24410;DHT22;12543;53.364;-1.504;2023-03-01T09:16:07;6.30;99.90
24410;DHT22;12543;53.364;-1.504;2023-03-01T09:18:34;6.30;99.90
24410;DHT22;12543;53.364;-1.504;2023-03-01T09:21:15;6.30;99.90
24410;DHT22;12543;53.364;-1.504;2023-03-01T09:23:43;6.30;99.90
24410;DHT22;12543;53.364;-1.504;2023-03-01T09:26:18;6.30;99.90
24410;DHT22;12543;53.364;-1.504;2023-03-01T09:28:46;6.30;99.90
24410;DHT22;12543;53.364;-1.504;2023-03-01T09:31:13;6.30;99.90
24410;DHT22;12543;53.364;-1.504;2023-03-01T09:33:41;6.30;99.90
24410;DHT22;12543;53.364;-1.504;2023-03-01T09:36:10;6.30;99.90
24410;DHT22;12543;53.364;-1.504;2023-03-01T09:38:38;6.30;99.90
24410;DHT22;12543;53.364;-1.504;2023-03-01T09:43:46;6.40;99.90
24410;DHT22;12543;53.364;-1.504;2023-03-01T09:46:14;6.40;99.90
24410;DHT22;12543;53.364;-1.504;2023-03-01T09:48:51;6.40;99.90
24410;DHT22;12543;53.364;-1.504;2023-03-01T09:51:30;6.50;99.90
24410;DHT22;12543;53.364;-1.504;2023-03-01T09:53:58;6.60;99.90
24410;DHT22;12543;53.364;-1.504;2023-03-01T09:56:37;6.70;99.90
24410;DHT22;12543;53.364;-1.504;2023-03-01T10:09:39;7.00;99.90
24410;DHT22;12543;53.364;-1.504;2023-03-01T10:12:26;7.10;99.90
24410;DHT22;12543;53.364;-1.504;2023-03-01T10:17:44;7.20;99.90
24410;DHT22;12543;53.364;-1.504;2023-03-01T10:20:28;7.20;99.90
24410;DHT22;12543;53.364;-1.504;2023-03-01T10:22:59;7.20;99.90
24410;DHT22;12543;53.364;-1.504;2023-03-01T10:28:00;7.20;99.90
24410;DHT22;12543;53.364;-1.504;2023-03-01T10:30:35;7.30;99.90
24410;DHT22;12543;53.364;-1.504;2023-03-01T10:33:09;7.30;99.90
24410;DHT22;12543;53.364;-1.504;2023-03-01T10:35:40;7.20;99.90
24410;DHT22;12543;53.364;-1.504;2023-03-01T10:38:08;7.20;99.90
24410;DHT22;12543;53.364;-1.504;2023-03-01T10:40:36;7.20;99.90
24410;DHT22;12543;53.364;-1.504;2023-03-01T10:43:15;7.20;99.90
24410;DHT22;12543;53.364;-1.504;2023-03-01T10:45:42;7.30;99.90
24410;DHT22;12543;53.364;-1.504;2023-03-01T10:48:18;7.30;99.90
24410;DHT22;12543;53.364;-1.504;2023-03-01T10:50:47;7.30;99.90
24410;DHT22;12543;53.364;-1.504;2023-03-01T10:53:28;7.40;99.90
24410;DHT22;12543;53.364;-1.504;2023-03-01T10:58:24;7.40;99.90
24410;DHT22;12543;53.364;-1.504;2023-03-01T11:00:52;7.50;99.90
24410;DHT22;12543;53.364;-1.504;2023-03-01T11:03:27;7.50;99.90
24410;DHT22;12543;53.364;-1.504;2023-03-01T11:05:58;7.50;99.90
24410;DHT22;12543;53.364;-1.504;2023-03-01T11:08:30;7.50;99.90
24410;DHT22;12543;53.364;-1.504;2023-03-01T11:11:34;7.40;99.90
24410;DHT22;12543;53.364;-1.504;2023-03-01T11:13:58;7.40;99.90
24410;DHT22;12543;53.364;-1.504;2023-03-01T11:16:27;7.40;99.90
24410;DHT22;12543;53.364;-1.504;2023-03-01T11:18:59;7.40;99.90
24410;DHT22;12543;53.364;-1.504;2023-03-01T11:21:28;7.40;99.90
24410;DHT22;12543;53.364;-1.504;2023-03-01T11:23:57;7.40;99.90
24410;DHT22;12543;53.364;-1.504;2023-03-01T11:26:24;7.40;99.90
24410;DHT22;12543;53.364;-1.504;2023-03-01T11:28:53;7.40;99.90
24410;DHT22;12543;53.364;-1.504;2023-03-01T11:31:22;7.50;99.90
24410;DHT22;12543;53.364;-1.504;2023-03-01T11:33:55;7.40;99.90
24410;DHT22;12543;53.364;-1.504;2023-03-01T11:39:13;7.50;99.90
24410;DHT22;12543;53.364;-1.504;2023-03-01T11:41:42;7.60;99.90
24410;DHT22;12543;53.364;-1.504;2023-03-01T11:49:44;7.90;99.90
24410;DHT22;12543;53.364;-1.504;2023-03-01T12:00:15;8.00;99.90
24410;DHT22;12543;53.364;-1.504;2023-03-01T12:05:29;8.00;99.90
24410;DHT22;12543;53.364;-1.504;2023-03-01T12:10:47;8.00;99.90
24410;DHT22;12543;53.364;-1.504;2023-03-01T12:21:12;8.10;99.90
24410;DHT22;12543;53.364;-1.504;2023-03-01T12:36:48;8.40;99.90
24410;DHT22;12543;53.364;-1.504;2023-03-01T12:50:01;8.70;99.90
24410;DHT22;12543;53.364;-1.504;2023-03-01T12:52:33;8.80;99.90
24410;DHT22;12543;53.364;-1.504;2023-03-01T12:55:02;8.80;99.90
24410;DHT22;12543;53.364;-1.504;2023-03-01T12:57:36;8.90;99.90
24410;DHT22;12543;53.364;-1.504;2023-03-01T13:00:21;8.90;99.90
24410;DHT22;12543;53.364;-1.504;2023-03-01T13:08:05;8.80;99.90
24410;DHT22;12543;53.364;-1.504;2023-03-01T13:10:40;8.80;99.90
24410;DHT22;12543;53.364;-1.504;2023-03-01T13:15:37;8.70;99.90
24410;DHT22;12543;53.364;-1.504;2023-03-01T13:20:47;8.70;99.90
24410;DHT22;12543;53.364;-1.504;2023-03-01T13:26:00;8.70;99.90
24410;DHT22;12543;53.364;-1.504;2023-03-01T13:31:04;8.60;99.90
24410;DHT22;12543;53.364;-1.504;2023-03-01T13:36:00;8.60;99.90
24410;DHT22;12543;53.364;-1.504;2023-03-01T13:41:04;8.40;99.90
24410;DHT22;12543;53.364;-1.504;2023-03-01T13:43:32;8.40;99.90
24410;DHT22;12543;53.364;-1.504;2023-03-01T13:46:10;8.40;99.90
24410;DHT22;12543;53.364;-1.504;2023-03-01T13:48:38;8.30;99.90
24410;DHT22;12543;53.364;-1.504;2023-03-01T13:51:09;8.30;99.90
24410;DHT22;12543;53.364;-1.504;2023-03-01T13:53:41;8.30;99.90
24410;DHT22;12543;53.364;-1.504;2023-03-01T13:56:11;8.30;99.90
24410;DHT22;12543;53.364;-1.504;2023-03-01T13:58:49;8.40;99.90
24410;DHT22;12543;53.364;-1.504;2023-03-01T14:01:21;8.40;99.90
24410;DHT22;12543;53.364;-1.504;2023-03-01T14:03:50;8.40;99.90
24410;DHT22;12543;53.364;-1.504;2023-03-01T14:06:21;8.40;99.90
24410;DHT22;12543;53.364;-1.504;2023-03-01T14:08:49;8.50;99.90
24410;DHT22;12543;53.364;-1.504;2023-03-01T14:19:16;8.50;99.90
24410;DHT22;12543;53.364;-1.504;2023-03-01T14:21:59;8.40;99.90
24410;DHT22;12543;53.364;-1.504;2023-03-01T14:24:31;8.40;99.90
24410;DHT22;12543;53.364;-1.504;2023-03-01T14:27:00;8.40;99.90
24410;DHT22;12543;53.364;-1.504;2023-03-01T14:29:38;8.40;99.90
24410;DHT22;12543;53.364;-1.504;2023-03-01T14:32:18;8.30;99.90
24410;DHT22;12543;53.364;-1.504;2023-03-01T14:34:46;8.30;99.90
24410;DHT22;12543;53.364;-1.504;2023-03-01T14:39:56;8.30;99.90
24410;DHT22;12543;53.364;-1.504;2023-03-01T14:42:25;8.30;99.90
24410;DHT22;12543;53.364;-1.504;2023-03-01T14:44:54;8.30;99.90
24410;DHT22;12543;53.364;-1.504;2023-03-01T14:47:31;8.30;99.90
24410;DHT22;12543;53.364;-1.504;2023-03-01T14:50:01;8.30;99.90
24410;DHT22;12543;53.364;-1.504;2023-03-01T14:52:32;8.30;99.90
24410;DHT22;12543;53.364;-1.504;2023-03-01T14:55:02;8.30;99.90
24410;DHT22;12543;53.364;-1.504;2023-03-01T14:57:30;8.30;99.90
24410;DHT22;12543;53.364;-1.504;2023-03-01T14:59:58;8.30;99.90
24410;DHT22;12543;53.364;-1.504;2023-03-01T15:02:29;8.20;99.90
24410;DHT22;12543;53.364;-1.504;2023-03-01T15:05:01;8.20;99.90
24410;DHT22;12543;53.364;-1.504;2023-03-01T15:07:30;8.20;99.90
24410;DHT22;12543;53.364;-1.504;2023-03-01T15:09:58;8.20;99.90
24410;DHT22;12543;53.364;-1.504;2023-03-01T15:12:34;8.20;99.90
24410;DHT22;12543;53.364;-1.504;2023-03-01T15:15:02;8.20;99.90
24410;DHT22;12543;53.364;-1.504;2023-03-01T15:17:48;8.20;99.90
24410;DHT22;12543;53.364;-1.504;2023-03-01T15:20:18;8.20;99.90
24410;DHT22;12543;53.364;-1.504;2023-03-01T15:22:48;8.20;99.90
24410;DHT22;12543;53.364;-1.504;2023-03-01T15:25:16;8.20;99.90
24410;DHT22;12543;53.364;-1.504;2023-03-01T15:27:48;8.20;99.90
24410;DHT22;12543;53.364;-1.504;2023-03-01T15:30:20;8.10;99.90
24410;DHT22;12543;53.364;-1.504;2023-03-01T15:32:48;8.10;99.90
24410;DHT22;12543;53.364;-1.504;2023-03-01T15:38:01;8.10;99.90
24410;DHT22;12543;53.364;-1.504;2023-03-01T15:40:28;8.00;99.90
24410;DHT22;12543;53.364;-1.504;2023-03-01T15:43:06;8.10;99.90
24410;DHT22;12543;53.364;-1.504;2023-03-01T15:45:33;8.00;99.90
24410;DHT22;12543;53.364;-1.504;2023-03-01T15:48:15;8.10;99.90
24410;DHT22;12543;53.364;-1.504;2023-03-01T15:50:44;8.00;99.90
24410;DHT22;12543;53.364;-1.504;2023-03-01T15:53:13;8.00;99.90
24410;DHT22;12543;53.364;-1.504;2023-03-01T15:55:41;8.00;99.90
24410;DHT22;12543;53.364;-1.504;2023-03-01T15:58:18;7.90;99.90
24410;DHT22;12543;53.364;-1.504;2023-03-01T16:00:46;7.90;99.90
24410;DHT22;12543;53.364;-1.504;2023-03-01T16:03:26;7.90;99.90
24410;DHT22;12543;53.364;-1.504;2023-03-01T16:05:53;7.80;99.90
24410;DHT22;12543;53.364;-1.504;2023-03-01T16:08:20;7.80;99.90
24410;DHT22;12543;53.364;-1.504;2023-03-01T16:10:48;7.80;99.90
24410;DHT22;12543;53.364;-1.504;2023-03-01T16:13:18;7.80;99.90
24410;DHT22;12543;53.364;-1.504;2023-03-01T16:15:46;7.70;99.90
24410;DHT22;12543;53.364;-1.504;2023-03-01T16:18:13;7.70;99.90
24410;DHT22;12543;53.364;-1.504;2023-03-01T16:20:40;7.70;99.90
24410;DHT22;12543;53.364;-1.504;2023-03-01T16:23:07;7.70;99.90
24410;DHT22;12543;53.364;-1.504;2023-03-01T16:25:35;7.70;99.90
24410;DHT22;12543;53.364;-1.504;2023-03-01T16:28:02;7.60;99.90
24410;DHT22;12543;53.364;-1.504;2023-03-01T16:30:36;7.60;99.90
24410;DHT22;12543;53.364;-1.504;2023-03-01T16:33:03;7.60;99.90
24410;DHT22;12543;53.364;-1.504;2023-03-01T16:35:52;7.60;99.90
24410;DHT22;12543;53.364;-1.504;2023-03-01T16:38:19;7.50;99.90
24410;DHT22;12543;53.364;-1.504;2023-03-01T16:40:46;7.50;99.90
24410;DHT22;12543;53.364;-1.504;2023-03-01T16:43:14;7.50;99.90
24410;DHT22;12543;53.364;-1.504;2023-03-01T16:45:40;7.50;99.90
24410;DHT22;12543;53.364;-1.504;2023-03-01T16:48:11;7.50;99.90
24410;DHT22;12543;53.364;-1.504;2023-03-01T16:50:38;7.40;99.90
24410;DHT22;12543;53.364;-1.504;2023-03-01T16:53:05;7.40;99.90
24410;DHT22;12543;53.364;-1.504;2023-03-01T16:55:32;7.40;99.90
24410;DHT22;12543;53.364;-1.504;2023-03-01T16:58:00;7.40;99.90
24410;DHT22;12543;53.364;-1.504;2023-03-01T17:00:27;7.30;99.90
24410;DHT22;12543;53.364;-1.504;2023-03-01T17:02:54;7.30;99.90
24410;DHT22;12543;53.364;-1.504;2023-03-01T17:05:21;7.30;99.90
24410;DHT22;12543;53.364;-1.504;2023-03-01T17:07:50;7.30;99.90
24410;DHT22;12543;53.364;-1.504;2023-03-01T17:10:17;7.30;99.90
24410;DHT22;12543;53.364;-1.504;2023-03-01T17:12:47;7.20;99.90
24410;DHT22;12543;53.364;-1.504;2023-03-01T17:15:14;7.20;99.90
24410;DHT22;12543;53.364;-1.504;2023-03-01T17:17:41;7.20;99.90
24410;DHT22;12543;53.364;-1.504;2023-03-01T17:20:08;7.20;99.90
24410;DHT22;12543;53.364;-1.504;2023-03-01T17:22:36;7.20;99.90
24410;DHT22;12543;53.364;-1.504;2023-03-01T17:25:03;7.20;99.90
24410;DHT22;12543;53.364;-1.504;2023-03-01T17:27:30;7.20;99.90
24410;DHT22;12543;53.364;-1.504;2023-03-01T17:30:01;7.20;99.90
24410;DHT22;12543;53.364;-1.504;2023-03-01T17:32:28;7.20;99.90
24410;DHT22;12543;53.364;-1.504;2023-03-01T17:34:55;7.20;99.90
24410;DHT22;12543;53.364;-1.504;2023-03-01T17:37:22;7.20;99.90
24410;DHT22;12543;53.364;-1.504;2023-03-01T17:39:49;7.10;99.90
24410;DHT22;12543;53.364;-1.504;2023-03-01T17:42:16;7.10;99.90